sensor_id;sensor_type;location;lat;lon;timestamp;pressure;altitude;pressure_sealevel;temperature;humidity
16355;BME280;8287;51.644;8.494;2022-09-03T00:01:30;100173.50;;;19.84;43.94
16355;BME280;8287;51.644;8.494;2022-09-03T00:04:03;100160.06;;;19.84;43.95
16355;BME280;8287;51.644;8.494;2022-09-03T00:06:38;100163.91;;;19.83;43.43
16355;BME280;8287;51.644;8.494;2022-09-03T00:09:11;100160.47;;;19.86;43.58
16355;BME280;8287;51.644;8.494;2022-09-03T00:11:49;100166.50;;;19.76;43.82
16355;BME280;8287;51.644;8.494;2022-09-03T00:14:20;100164.16;;;19.71;43.42
16355;BME280;8287;51.644;8.494;2022-09-03T00:16:52;100168.28;;;19.65;44.19
16355;BME280;8287;51.644;8.494;2022-09-03T00:19:23;100164.09;;;19.67;43.73
16355;BME280;8287;51.644;8.494;2022-09-03T00:21:56;100164.44;;;19.62;44.59
16355;BME280;8287;51.644;8.494;2022-09-03T00:24:29;100163.31;;;19.63;44.51
16355;BME280;8287;51.644;8.494;2022-09-03T00:27:02;100158.28;;;19.62;44.56
16355;BME280;8287;51.644;8.494;2022-09-03T00:29:34;100171.66;;;19.55;44.37
16355;BME280;8287;51.644;8.494;2022-09-03T00:32:07;100165.88;;;19.53;44.66
16355;BME280;8287;51.644;8.494;2022-09-03T00:34:38;100169.63;;;19.45;44.44
16355;BME280;8287;51.644;8.494;2022-09-03T00:37:08;100155.78;;;19.43;45.20
16355;BME280;8287;51.644;8.494;2022-09-03T00:39:36;100159.91;;;19.37;44.80
16355;BME280;8287;51.644;8.494;2022-09-03T00:45:02;100157.06;;;19.23;45.77
16355;BME280;8287;51.644;8.494;2022-09-03T00:47:43;100156.16;;;19.15;45.59
16355;BME280;8287;51.644;8.494;2022-09-03T00:50:18;100155.94;;;18.98;46.15
16355;BME280;8287;51.644;8.494;2022-09-03T00:52:59;100162.28;;;19.12;46.53
16355;BME280;8287;51.644;8.494;2022-09-03T00:55:37;100151.16;;;19.14;45.98
16355;BME280;8287;51.644;8.494;2022-09-03T00:58:16;100153.78;;;19.10;46.04
16355;BME280;8287;51.644;8.494;2022-09-03T01:00:46;100151.38;;;19.02;45.92
16355;BME280;8287;51.644;8.494;2022-09-03T01:03:17;100157.84;;;18.97;45.79
16355;BME280;8287;51.644;8.494;2022-09-03T01:05:58;100151.25;;;18.91;46.19
16355;BME280;8287;51.644;8.494;2022-09-03T01:11:31;100150.28;;;18.77;46.57
16355;BME280;8287;51.644;8.494;2022-09-03T01:14:10;100155.53;;;18.70;46.45
16355;BME280;8287;51.644;8.494;2022-09-03T01:16:46;100151.31;;;18.69;46.92
16355;BME280;8287;51.644;8.494;2022-09-03T01:19:37;100150.53;;;18.68;47.08
16355;BME280;8287;51.644;8.494;2022-09-03T01:22:32;100160.09;;;18.66;47.30
16355;BME280;8287;51.644;8.494;2022-09-03T01:25:24;100159.16;;;18.55;47.54
16355;BME280;8287;51.644;8.494;2022-09-03T01:28:07;100161.41;;;18.53;47.73
16355;BME280;8287;51.644;8.494;2022-09-03T01:30:40;100166.66;;;18.46;48.14
16355;BME280;8287;51.644;8.494;2022-09-03T01:33:17;100160.38;;;18.35;48.55
16355;BME280;8287;51.644;8.494;2022-09-03T01:35:47;100161.72;;;18.25;48.51
16355;BME280;8287;51.644;8.494;2022-09-03T01:38:23;100161.25;;;18.20;48.42
16355;BME280;8287;51.644;8.494;2022-09-03T01:41:00;100163.19;;;18.23;49.39
16355;BME280;8287;51.644;8.494;2022-09-03T01:43:51;100162.63;;;18.10;48.85
16355;BME280;8287;51.644;8.494;2022-09-03T01:46:23;100171.19;;;17.97;49.44
16355;BME280;8287;51.644;8.494;2022-09-03T01:48:57;100158.63;;;18.01;48.85
16355;BME280;8287;51.644;8.494;2022-09-03T01:51:28;100166.84;;;18.11;48.71
16355;BME280;8287;51.644;8.494;2022-09-03T01:54:25;100163.63;;;18.02;48.81
16355;BME280;8287;51.644;8.494;2022-09-03T01:57:14;100157.22;;;17.88;49.67
16355;BME280;8287;51.644;8.494;2022-09-03T01:59:51;100159.50;;;17.86;49.02
16355;BME280;8287;51.644;8.494;2022-09-03T02:02:24;100164.31;;;17.77;49.80
16355;BME280;8287;51.644;8.494;2022-09-03T02:04:58;100163.09;;;17.74;49.86
16355;BME280;8287;51.644;8.494;2022-09-03T02:07:29;100165.09;;;17.58;50.33
16355;BME280;8287;51.644;8.494;2022-09-03T02:09:58;100158.97;;;17.58;50.33
16355;BME280;8287;51.644;8.494;2022-09-03T02:12:25;100158.84;;;17.51;50.30
16355;BME280;8287;51.644;8.494;2022-09-03T02:15:00;100154.59;;;17.69;50.22
16355;BME280;8287;51.644;8.494;2022-09-03T02:17:28;100156.44;;;17.65;50.52
16355;BME280;8287;51.644;8.494;2022-09-03T02:19:55;100155.72;;;17.68;49.98
16355;BME280;8287;51.644;8.494;2022-09-03T02:22:24;100160.25;;;17.45;51.06
16355;BME280;8287;51.644;8.494;2022-09-03T02:24:51;100159.41;;;17.60;50.66
16355;BME280;8287;51.644;8.494;2022-09-03T02:27:18;100153.25;;;17.59;50.55
16355;BME280;8287;51.644;8.494;2022-09-03T02:29:45;100157.41;;;17.76;50.14
16355;BME280;8287;51.644;8.494;2022-09-03T02:32:13;100154.72;;;17.76;50.46
16355;BME280;8287;51.644;8.494;2022-09-03T02:34:40;100149.28;;;17.72;50.52
16355;BME280;8287;51.644;8.494;2022-09-03T02:37:11;100144.22;;;17.67;50.29
16355;BME280;8287;51.644;8.494;2022-09-03T02:39:38;100151.44;;;17.63;50.43
16355;BME280;8287;51.644;8.494;2022-09-03T02:42:05;100150.53;;;17.56;50.70
16355;BME280;8287;51.644;8.494;2022-09-03T02:44:34;100149.88;;;17.62;50.75
16355;BME280;8287;51.644;8.494;2022-09-03T02:47:04;100141.53;;;17.67;50.23
16355;BME280;8287;51.644;8.494;2022-09-03T02:49:33;100148.19;;;17.54;50.75
16355;BME280;8287;51.644;8.494;2022-09-03T02:52:01;100133.09;;;17.65;49.79
16355;BME280;8287;51.644;8.494;2022-09-03T02:54:30;100137.31;;;17.66;50.82
16355;BME280;8287;51.644;8.494;2022-09-03T02:57:04;100141.00;;;17.39;51.28
16355;BME280;8287;51.644;8.494;2022-09-03T02:59:30;100129.72;;;17.49;50.93
16355;BME280;8287;51.644;8.494;2022-09-03T03:01:57;100139.28;;;17.50;51.31
16355;BME280;8287;51.644;8.494;2022-09-03T03:04:24;100141.16;;;17.46;51.45
16355;BME280;8287;51.644;8.494;2022-09-03T03:06:52;100141.34;;;17.38;51.77
16355;BME280;8287;51.644;8.494;2022-09-03T03:09:18;100137.25;;;17.25;51.76
16355;BME280;8287;51.644;8.494;2022-09-03T03:11:45;100140.75;;;17.10;52.43
16355;BME280;8287;51.644;8.494;2022-09-03T03:14:15;100132.47;;;17.15;52.43
16355;BME280;8287;51.644;8.494;2022-09-03T03:16:43;100143.84;;;17.12;52.54
16355;BME280;8287;51.644;8.494;2022-09-03T03:19:09;100141.25;;;16.96;52.76
16355;BME280;8287;51.644;8.494;2022-09-03T03:21:36;100151.28;;;16.84;53.52
16355;BME280;8287;51.644;8.494;2022-09-03T03:24:05;100143.81;;;16.74;53.50
16355;BME280;8287;51.644;8.494;2022-09-03T03:26:32;100149.16;;;16.74;53.51
16355;BME280;8287;51.644;8.494;2022-09-03T03:29:02;100140.72;;;16.72;53.41
16355;BME280;8287;51.644;8.494;2022-09-03T03:31:30;100142.25;;;16.73;53.23
16355;BME280;8287;51.644;8.494;2022-09-03T03:33:58;100148.53;;;16.80;53.57
16355;BME280;8287;51.644;8.494;2022-09-03T03:36:27;100151.13;;;16.77;53.78
16355;BME280;8287;51.644;8.494;2022-09-03T03:38:56;100149.16;;;16.74;53.51
16355;BME280;8287;51.644;8.494;2022-09-03T03:41:25;100146.13;;;16.75;53.65
16355;BME280;8287;51.644;8.494;2022-09-03T03:43:53;100137.66;;;16.73;53.44
16355;BME280;8287;51.644;8.494;2022-09-03T03:46:20;100145.28;;;16.72;53.88
16355;BME280;8287;51.644;8.494;2022-09-03T03:48:48;100151.84;;;16.74;53.71
16355;BME280;8287;51.644;8.494;2022-09-03T03:51:15;100149.59;;;16.76;54.08
16355;BME280;8287;51.644;8.494;2022-09-03T03:53:42;100139.22;;;16.74;53.56
16355;BME280;8287;51.644;8.494;2022-09-03T03:56:10;100148.13;;;16.78;53.68
16355;BME280;8287;51.644;8.494;2022-09-03T03:58:39;100138.09;;;16.75;53.78
16355;BME280;8287;51.644;8.494;2022-09-03T04:01:09;100138.78;;;16.73;53.61
16355;BME280;8287;51.644;8.494;2022-09-03T04:03:37;100139.72;;;16.80;53.89
16355;BME280;8287;51.644;8.494;2022-09-03T04:06:04;100133.06;;;16.89;53.12
16355;BME280;8287;51.644;8.494;2022-09-03T04:08:33;100138.66;;;16.84;53.74
16355;BME280;8287;51.644;8.494;2022-09-03T04:11:02;100135.94;;;16.81;53.88
16355;BME280;8287;51.644;8.494;2022-09-03T04:13:29;100136.38;;;16.83;53.69
16355;BME280;8287;51.644;8.494;2022-09-03T04:16:01;100140.66;;;16.87;53.93
16355;BME280;8287;51.644;8.494;2022-09-03T04:18:29;100135.50;;;16.79;53.96
16355;BME280;8287;51.644;8.494;2022-09-03T04:20:59;100126.56;;;16.72;54.23
16355;BME280;8287;51.644;8.494;2022-09-03T04:23:29;100131.34;;;16.81;53.68
16355;BME280;8287;51.644;8.494;2022-09-03T04:25:56;100129.72;;;16.77;54.17
16355;BME280;8287;51.644;8.494;2022-09-03T04:28:23;100128.72;;;16.66;54.39
16355;BME280;8287;51.644;8.494;2022-09-03T04:30:49;100119.06;;;16.62;54.66
16355;BME280;8287;51.644;8.494;2022-09-03T04:33:17;100114.47;;;16.62;53.97
16355;BME280;8287;51.644;8.494;2022-09-03T04:35:44;100116.97;;;16.71;53.82
16355;BME280;8287;51.644;8.494;2022-09-03T04:38:11;100110.00;;;16.66;54.14
16355;BME280;8287;51.644;8.494;2022-09-03T04:40:37;100107.31;;;16.66;54.35
16355;BME280;8287;51.644;8.494;2022-09-03T04:43:04;100102.31;;;16.65;54.76
16355;BME280;8287;51.644;8.494;2022-09-03T04:45:31;100110.06;;;16.70;54.60
16355;BME280;8287;51.644;8.494;2022-09-03T04:47:58;100104.50;;;16.78;54.00
16355;BME280;8287;51.644;8.494;2022-09-03T04:50:27;100111.28;;;16.72;53.83
16355;BME280;8287;51.644;8.494;2022-09-03T04:52:54;100121.28;;;16.75;54.06
16355;BME280;8287;51.644;8.494;2022-09-03T04:55:22;100117.16;;;16.62;53.79
16355;BME280;8287;51.644;8.494;2022-09-03T04:57:49;100119.31;;;16.57;54.92
16355;BME280;8287;51.644;8.494;2022-09-03T05:00:16;100121.38;;;16.63;54.70
16355;BME280;8287;51.644;8.494;2022-09-03T05:02:44;100122.88;;;16.61;54.74
16355;BME280;8287;51.644;8.494;2022-09-03T05:05:11;100110.78;;;16.51;54.27
16355;BME280;8287;51.644;8.494;2022-09-03T05:07:39;100112.00;;;16.38;55.47
16355;BME280;8287;51.644;8.494;2022-09-03T05:10:08;100116.06;;;16.32;55.41
16355;BME280;8287;51.644;8.494;2022-09-03T05:12:37;100120.81;;;16.23;56.07
16355;BME280;8287;51.644;8.494;2022-09-03T05:15:05;100127.69;;;16.09;56.10
16355;BME280;8287;51.644;8.494;2022-09-03T05:17:31;100126.00;;;16.16;55.78
16355;BME280;8287;51.644;8.494;2022-09-03T05:19:58;100126.84;;;16.20;55.45
16355;BME280;8287;51.644;8.494;2022-09-03T05:22:25;100128.84;;;16.23;55.71
16355;BME280;8287;51.644;8.494;2022-09-03T05:24:53;100112.28;;;16.18;55.77
16355;BME280;8287;51.644;8.494;2022-09-03T05:27:20;100116.41;;;16.15;56.11
16355;BME280;8287;51.644;8.494;2022-09-03T05:29:47;100120.19;;;16.30;55.52
16355;BME280;8287;51.644;8.494;2022-09-03T05:32:14;100120.03;;;16.38;56.14
16355;BME280;8287;51.644;8.494;2022-09-03T05:34:41;100116.50;;;16.34;55.88
16355;BME280;8287;51.644;8.494;2022-09-03T05:37:08;100116.78;;;16.45;55.58
16355;BME280;8287;51.644;8.494;2022-09-03T05:39:36;100121.59;;;16.39;55.62
16355;BME280;8287;51.644;8.494;2022-09-03T05:42:04;100126.50;;;16.53;55.93
16355;BME280;8287;51.644;8.494;2022-09-03T05:44:30;100108.91;;;16.52;55.44
16355;BME280;8287;51.644;8.494;2022-09-03T05:46:57;100116.47;;;16.65;55.19
16355;BME280;8287;51.644;8.494;2022-09-03T05:49:24;100120.00;;;16.69;55.76
16355;BME280;8287;51.644;8.494;2022-09-03T05:51:51;100123.94;;;16.75;55.21
16355;BME280;8287;51.644;8.494;2022-09-03T05:54:18;100113.66;;;16.77;54.75
16355;BME280;8287;51.644;8.494;2022-09-03T05:56:45;100114.09;;;16.79;55.54
16355;BME280;8287;51.644;8.494;2022-09-03T05:59:12;100111.56;;;16.86;54.65
16355;BME280;8287;51.644;8.494;2022-09-03T06:01:40;100113.34;;;16.97;54.75
16355;BME280;8287;51.644;8.494;2022-09-03T06:04:10;100121.78;;;16.99;54.79
16355;BME280;8287;51.644;8.494;2022-09-03T06:06:38;100117.88;;;17.12;55.01
16355;BME280;8287;51.644;8.494;2022-09-03T06:09:06;100114.97;;;17.21;54.27
16355;BME280;8287;51.644;8.494;2022-09-03T06:11:34;100117.31;;;17.22;54.06
16355;BME280;8287;51.644;8.494;2022-09-03T06:14:02;100114.34;;;17.27;54.40
16355;BME280;8287;51.644;8.494;2022-09-03T06:16:32;100117.50;;;17.33;53.90
16355;BME280;8287;51.644;8.494;2022-09-03T06:18:59;100117.94;;;17.35;54.44
16355;BME280;8287;51.644;8.494;2022-09-03T06:21:26;100112.81;;;17.45;54.34
16355;BME280;8287;51.644;8.494;2022-09-03T06:23:54;100116.78;;;17.74;53.32
16355;BME280;8287;51.644;8.494;2022-09-03T06:26:22;100123.16;;;17.66;53.02
16355;BME280;8287;51.644;8.494;2022-09-03T06:28:49;100122.28;;;17.62;53.11
16355;BME280;8287;51.644;8.494;2022-09-03T06:31:19;100117.94;;;17.73;53.42
16355;BME280;8287;51.644;8.494;2022-09-03T06:33:48;100120.56;;;17.92;52.84
16355;BME280;8287;51.644;8.494;2022-09-03T06:36:16;100118.75;;;17.99;53.24
16355;BME280;8287;51.644;8.494;2022-09-03T06:38:43;100128.19;;;18.12;52.76
16355;BME280;8287;51.644;8.494;2022-09-03T06:41:11;100128.66;;;18.18;52.33
16355;BME280;8287;51.644;8.494;2022-09-03T06:43:40;100118.03;;;18.25;52.11
16355;BME280;8287;51.644;8.494;2022-09-03T06:46:09;100127.44;;;18.38;52.05
16355;BME280;8287;51.644;8.494;2022-09-03T06:48:38;100122.41;;;18.59;51.60
16355;BME280;8287;51.644;8.494;2022-09-03T06:51:07;100121.69;;;18.62;51.14
16355;BME280;8287;51.644;8.494;2022-09-03T06:53:36;100119.19;;;18.76;51.01
16355;BME280;8287;51.644;8.494;2022-09-03T06:56:05;100119.75;;;18.88;50.91
16355;BME280;8287;51.644;8.494;2022-09-03T06:58:33;100122.53;;;18.95;49.86
16355;BME280;8287;51.644;8.494;2022-09-03T07:01:02;100123.78;;;19.05;49.28
16355;BME280;8287;51.644;8.494;2022-09-03T07:03:31;100120.41;;;19.08;49.97
16355;BME280;8287;51.644;8.494;2022-09-03T07:06:02;100118.78;;;19.29;49.40
16355;BME280;8287;51.644;8.494;2022-09-03T07:08:31;100118.16;;;19.43;48.43
16355;BME280;8287;51.644;8.494;2022-09-03T07:10:59;100125.13;;;19.47;48.86
16355;BME280;8287;51.644;8.494;2022-09-03T07:13:27;100110.69;;;19.62;48.23
16355;BME280;8287;51.644;8.494;2022-09-03T07:15:59;100121.47;;;19.66;47.79
16355;BME280;8287;51.644;8.494;2022-09-03T07:18:26;100126.16;;;19.72;47.81
16355;BME280;8287;51.644;8.494;2022-09-03T07:20:57;100120.81;;;19.76;47.88
16355;BME280;8287;51.644;8.494;2022-09-03T07:23:25;100119.81;;;19.91;48.08
16355;BME280;8287;51.644;8.494;2022-09-03T07:25:54;100123.44;;;20.09;47.36
16355;BME280;8287;51.644;8.494;2022-09-03T07:28:21;100115.47;;;20.23;46.95
16355;BME280;8287;51.644;8.494;2022-09-03T07:30:49;100124.63;;;20.15;47.01
16355;BME280;8287;51.644;8.494;2022-09-03T07:33:16;100107.41;;;20.23;46.44
16355;BME280;8287;51.644;8.494;2022-09-03T07:35:43;100115.59;;;20.37;47.34
16355;BME280;8287;51.644;8.494;2022-09-03T07:38:10;100117.69;;;20.64;47.00
16355;BME280;8287;51.644;8.494;2022-09-03T07:40:37;100120.66;;;20.48;46.18
16355;BME280;8287;51.644;8.494;2022-09-03T07:43:05;100110.66;;;20.45;46.87
16355;BME280;8287;51.644;8.494;2022-09-03T07:45:32;100113.38;;;20.49;45.93
16355;BME280;8287;51.644;8.494;2022-09-03T07:47:59;100113.81;;;20.58;45.99
16355;BME280;8287;51.644;8.494;2022-09-03T07:50:25;100107.75;;;20.75;46.18
16355;BME280;8287;51.644;8.494;2022-09-03T07:52:55;100111.78;;;21.05;45.63
16355;BME280;8287;51.644;8.494;2022-09-03T07:55:23;100114.69;;;20.79;45.45
16355;BME280;8287;51.644;8.494;2022-09-03T07:57:54;100118.31;;;21.04;45.58
16355;BME280;8287;51.644;8.494;2022-09-03T08:00:23;100119.91;;;21.16;44.98
16355;BME280;8287;51.644;8.494;2022-09-03T08:02:50;100125.38;;;21.33;45.08
16355;BME280;8287;51.644;8.494;2022-09-03T08:05:17;100115.78;;;21.46;44.51
16355;BME280;8287;51.644;8.494;2022-09-03T08:07:44;100121.94;;;21.43;44.96
16355;BME280;8287;51.644;8.494;2022-09-03T08:10:11;100130.00;;;21.36;44.45
16355;BME280;8287;51.644;8.494;2022-09-03T08:12:38;100119.59;;;21.38;45.04
16355;BME280;8287;51.644;8.494;2022-09-03T08:15:05;100121.25;;;21.81;44.20
16355;BME280;8287;51.644;8.494;2022-09-03T08:17:34;100128.91;;;21.62;44.68
16355;BME280;8287;51.644;8.494;2022-09-03T08:20:01;100126.66;;;21.78;44.76
16355;BME280;8287;51.644;8.494;2022-09-03T08:22:28;100127.84;;;22.05;44.42
16355;BME280;8287;51.644;8.494;2022-09-03T08:24:55;100132.84;;;22.06;43.44
16355;BME280;8287;51.644;8.494;2022-09-03T08:27:21;100126.31;;;22.11;43.56
16355;BME280;8287;51.644;8.494;2022-09-03T08:29:49;100122.47;;;22.43;43.35
16355;BME280;8287;51.644;8.494;2022-09-03T08:32:17;100125.16;;;22.36;42.99
16355;BME280;8287;51.644;8.494;2022-09-03T08:34:45;100127.03;;;22.71;42.89
16355;BME280;8287;51.644;8.494;2022-09-03T08:37:12;100125.16;;;22.36;43.17
16355;BME280;8287;51.644;8.494;2022-09-03T08:39:38;100122.03;;;22.76;43.72
16355;BME280;8287;51.644;8.494;2022-09-03T08:42:23;100124.31;;;22.81;42.62
16355;BME280;8287;51.644;8.494;2022-09-03T08:44:53;100123.59;;;22.63;42.47
16355;BME280;8287;51.644;8.494;2022-09-03T08:47:25;100134.41;;;22.46;42.96
16355;BME280;8287;51.644;8.494;2022-09-03T08:49:57;100124.31;;;22.74;42.66
16355;BME280;8287;51.644;8.494;2022-09-03T08:52:29;100134.03;;;22.58;43.41
16355;BME280;8287;51.644;8.494;2022-09-03T08:55:05;100131.34;;;22.47;43.01
16355;BME280;8287;51.644;8.494;2022-09-03T08:57:42;100135.50;;;22.80;42.90
16355;BME280;8287;51.644;8.494;2022-09-03T09:00:12;100138.53;;;22.99;42.57
16355;BME280;8287;51.644;8.494;2022-09-03T09:02:50;100133.09;;;23.20;42.56
16355;BME280;8287;51.644;8.494;2022-09-03T09:05:23;100124.28;;;23.02;42.25
16355;BME280;8287;51.644;8.494;2022-09-03T09:07:56;100131.19;;;23.10;43.17
16355;BME280;8287;51.644;8.494;2022-09-03T09:10:30;100128.84;;;23.12;42.38
16355;BME280;8287;51.644;8.494;2022-09-03T09:13:08;100135.06;;;23.02;42.24
16355;BME280;8287;51.644;8.494;2022-09-03T09:15:47;100122.66;;;23.12;41.83
16355;BME280;8287;51.644;8.494;2022-09-03T09:18:21;100117.53;;;23.45;42.62
16355;BME280;8287;51.644;8.494;2022-09-03T09:21:00;100122.19;;;23.38;41.85
16355;BME280;8287;51.644;8.494;2022-09-03T09:23:34;100130.13;;;22.76;42.47
16355;BME280;8287;51.644;8.494;2022-09-03T09:26:06;100129.66;;;23.02;42.48
16355;BME280;8287;51.644;8.494;2022-09-03T09:28:37;100123.13;;;22.93;43.02
16355;BME280;8287;51.644;8.494;2022-09-03T09:31:06;100132.75;;;22.97;43.00
16355;BME280;8287;51.644;8.494;2022-09-03T09:33:33;100123.84;;;23.14;42.43
16355;BME280;8287;51.644;8.494;2022-09-03T09:36:04;100115.19;;;23.51;42.54
16355;BME280;8287;51.644;8.494;2022-09-03T09:38:34;100122.25;;;23.27;41.83
16355;BME280;8287;51.644;8.494;2022-09-03T09:41:08;100111.84;;;23.22;42.62
16355;BME280;8287;51.644;8.494;2022-09-03T09:43:35;100107.53;;;23.39;42.46
16355;BME280;8287;51.644;8.494;2022-09-03T09:46:06;100110.38;;;23.76;41.89
16355;BME280;8287;51.644;8.494;2022-09-03T09:48:37;100114.00;;;23.55;42.03
16355;BME280;8287;51.644;8.494;2022-09-03T09:51:09;100108.81;;;23.78;41.33
16355;BME280;8287;51.644;8.494;2022-09-03T09:53:36;100105.00;;;23.72;41.60
16355;BME280;8287;51.644;8.494;2022-09-03T09:56:04;100103.75;;;23.87;41.75
16355;BME280;8287;51.644;8.494;2022-09-03T09:58:32;100096.59;;;24.11;41.75
16355;BME280;8287;51.644;8.494;2022-09-03T10:01:02;100102.09;;;24.00;40.72
16355;BME280;8287;51.644;8.494;2022-09-03T10:03:40;100096.59;;;24.11;41.05
16355;BME280;8287;51.644;8.494;2022-09-03T10:06:13;100095.31;;;24.66;39.92
16355;BME280;8287;51.644;8.494;2022-09-03T10:09:05;100096.47;;;24.28;40.28
16355;BME280;8287;51.644;8.494;2022-09-03T10:11:33;100104.00;;;24.47;40.59
16355;BME280;8287;51.644;8.494;2022-09-03T10:14:02;100094.28;;;24.09;40.91
16355;BME280;8287;51.644;8.494;2022-09-03T10:16:34;100097.06;;;24.46;40.70
16355;BME280;8287;51.644;8.494;2022-09-03T10:19:08;100100.16;;;24.44;40.50
16355;BME280;8287;51.644;8.494;2022-09-03T10:21:43;100093.22;;;24.43;40.09
16355;BME280;8287;51.644;8.494;2022-09-03T10:24:25;100086.16;;;24.53;40.29
16355;BME280;8287;51.644;8.494;2022-09-03T10:26:55;100087.16;;;25.03;40.71
16355;BME280;8287;51.644;8.494;2022-09-03T10:29:23;100081.03;;;25.29;39.98
16355;BME280;8287;51.644;8.494;2022-09-03T10:32:02;100090.66;;;25.60;38.47
16355;BME280;8287;51.644;8.494;2022-09-03T10:34:42;100084.00;;;25.64;37.20
16355;BME280;8287;51.644;8.494;2022-09-03T10:37:21;100081.56;;;25.47;37.51
16355;BME280;8287;51.644;8.494;2022-09-03T10:40:03;100080.25;;;25.58;38.35
16355;BME280;8287;51.644;8.494;2022-09-03T10:42:41;100085.22;;;25.86;38.12
16355;BME280;8287;51.644;8.494;2022-09-03T10:45:18;100081.38;;;25.84;36.72
16355;BME280;8287;51.644;8.494;2022-09-03T10:48:12;100074.66;;;25.42;37.40
16355;BME280;8287;51.644;8.494;2022-09-03T10:50:46;100062.66;;;25.66;37.82
16355;BME280;8287;51.644;8.494;2022-09-03T10:53:29;100070.88;;;25.63;37.52
16355;BME280;8287;51.644;8.494;2022-09-03T10:56:01;100072.41;;;25.64;36.68
16355;BME280;8287;51.644;8.494;2022-09-03T10:58:50;100068.03;;;25.43;38.07
16355;BME280;8287;51.644;8.494;2022-09-03T11:01:26;100068.91;;;25.37;37.70
16355;BME280;8287;51.644;8.494;2022-09-03T11:04:13;100058.53;;;25.58;37.63
16355;BME280;8287;51.644;8.494;2022-09-03T11:06:50;100067.91;;;25.54;37.37
16355;BME280;8287;51.644;8.494;2022-09-03T11:09:22;100066.31;;;25.56;37.31
16355;BME280;8287;51.644;8.494;2022-09-03T11:11:54;100062.19;;;25.71;37.37
16355;BME280;8287;51.644;8.494;2022-09-03T11:14:31;100057.81;;;26.04;36.39
16355;BME280;8287;51.644;8.494;2022-09-03T11:17:04;100064.16;;;25.94;36.53
16355;BME280;8287;51.644;8.494;2022-09-03T11:19:34;100064.56;;;26.61;35.73
16355;BME280;8287;51.644;8.494;2022-09-03T11:22:03;100059.41;;;26.86;35.78
16355;BME280;8287;51.644;8.494;2022-09-03T11:24:35;100064.63;;;26.58;34.83
16355;BME280;8287;51.644;8.494;2022-09-03T11:27:15;100059.53;;;26.60;34.52
16355;BME280;8287;51.644;8.494;2022-09-03T11:29:49;100060.00;;;26.94;36.01
16355;BME280;8287;51.644;8.494;2022-09-03T11:32:21;100056.78;;;27.54;34.18
16355;BME280;8287;51.644;8.494;2022-09-03T11:34:52;100050.22;;;27.51;34.55
16355;BME280;8287;51.644;8.494;2022-09-03T11:37:21;100061.38;;;27.02;35.17
16355;BME280;8287;51.644;8.494;2022-09-03T11:40:05;100055.56;;;26.84;35.19
16355;BME280;8287;51.644;8.494;2022-09-03T11:42:35;100042.22;;;26.50;35.50
16355;BME280;8287;51.644;8.494;2022-09-03T11:45:21;100050.91;;;26.42;34.67
16355;BME280;8287;51.644;8.494;2022-09-03T11:47:49;100045.25;;;26.56;35.40
16355;BME280;8287;51.644;8.494;2022-09-03T11:50:20;100047.19;;;26.75;35.73
16355;BME280;8287;51.644;8.494;2022-09-03T11:52:48;100055.34;;;26.75;35.55
16355;BME280;8287;51.644;8.494;2022-09-03T11:55:28;100050.97;;;26.61;34.81
16355;BME280;8287;51.644;8.494;2022-09-03T11:57:58;100046.34;;;26.78;35.54
16355;BME280;8287;51.644;8.494;2022-09-03T12:00:35;100053.75;;;26.77;35.54
16355;BME280;8287;51.644;8.494;2022-09-03T12:03:03;100051.94;;;26.71;35.29
16355;BME280;8287;51.644;8.494;2022-09-03T12:05:35;100046.25;;;26.42;35.38
16355;BME280;8287;51.644;8.494;2022-09-03T12:08:40;100055.72;;;26.34;35.72
16355;BME280;8287;51.644;8.494;2022-09-03T12:11:26;100051.09;;;26.74;35.39
16355;BME280;8287;51.644;8.494;2022-09-03T12:14:05;100039.56;;;27.05;34.75
16355;BME280;8287;51.644;8.494;2022-09-03T12:16:57;100046.78;;;26.57;36.11
16355;BME280;8287;51.644;8.494;2022-09-03T12:19:32;100052.22;;;26.57;35.51
16355;BME280;8287;51.644;8.494;2022-09-03T12:22:01;100052.06;;;26.21;35.75
16355;BME280;8287;51.644;8.494;2022-09-03T12:24:29;100052.50;;;26.39;36.46
16355;BME280;8287;51.644;8.494;2022-09-03T12:27:03;100040.38;;;26.67;36.61
16355;BME280;8287;51.644;8.494;2022-09-03T12:29:30;100052.34;;;26.69;35.73
16355;BME280;8287;51.644;8.494;2022-09-03T12:32:06;100044.00;;;26.37;36.02
16355;BME280;8287;51.644;8.494;2022-09-03T12:34:33;100048.19;;;26.42;35.99
16355;BME280;8287;51.644;8.494;2022-09-03T12:37:00;100059.66;;;26.53;35.49
16355;BME280;8287;51.644;8.494;2022-09-03T12:39:28;100054.72;;;26.87;36.40
16355;BME280;8287;51.644;8.494;2022-09-03T12:41:59;100036.00;;;27.08;34.71
16355;BME280;8287;51.644;8.494;2022-09-03T12:44:30;100053.81;;;26.93;34.86
16355;BME280;8287;51.644;8.494;2022-09-03T12:47:05;100049.78;;;26.62;36.03
16355;BME280;8287;51.644;8.494;2022-09-03T12:49:37;100050.97;;;26.81;35.03
16355;BME280;8287;51.644;8.494;2022-09-03T12:52:10;100046.31;;;26.62;35.47
16355;BME280;8287;51.644;8.494;2022-09-03T12:54:44;100045.13;;;26.63;35.94
16355;BME280;8287;51.644;8.494;2022-09-03T12:57:18;100042.81;;;26.61;34.82
16355;BME280;8287;51.644;8.494;2022-09-03T12:59:48;100042.53;;;26.33;35.86
16355;BME280;8287;51.644;8.494;2022-09-03T13:02:19;100039.53;;;26.70;35.62
16355;BME280;8287;51.644;8.494;2022-09-03T13:04:48;100028.56;;;26.93;34.72
16355;BME280;8287;51.644;8.494;2022-09-03T13:07:23;100032.06;;;26.54;35.28
16355;BME280;8287;51.644;8.494;2022-09-03T13:09:51;100031.94;;;26.81;35.42
16355;BME280;8287;51.644;8.494;2022-09-03T13:12:20;100034.59;;;27.20;34.72
16355;BME280;8287;51.644;8.494;2022-09-03T13:14:49;100038.50;;;27.19;34.19
16355;BME280;8287;51.644;8.494;2022-09-03T13:20:26;100038.72;;;27.44;35.03
16355;BME280;8287;51.644;8.494;2022-09-03T13:23:11;100035.00;;;27.38;34.52
16355;BME280;8287;51.644;8.494;2022-09-03T13:25:51;100031.56;;;27.34;33.30
16355;BME280;8287;51.644;8.494;2022-09-03T13:28:33;100040.16;;;26.77;35.63
16355;BME280;8287;51.644;8.494;2022-09-03T13:31:21;100038.75;;;26.89;34.87